createdAt,value
2018-10-19T00:01:24.067Z,28.87
2018-10-19T00:03:53.103Z,29.97
2018-10-19T00:06:22.132Z,31.30
2018-10-19T00:08:51.160Z,31.10
2018-10-19T00:11:20.203Z,30.87
2018-10-19T00:13:49.303Z,32.60
2018-10-19T00:16:18.328Z,29.97
2018-10-19T00:18:47.395Z,32.47
2018-10-19T00:21:16.424Z,32.77
2018-10-19T00:23:45.513Z,31.23
2018-10-19T00:26:14.594Z,29.77
2018-10-19T00:28:43.604Z,29.97
2018-10-19T00:31:12.714Z,29.83
2018-10-19T00:33:41.760Z,30.27
2018-10-19T00:36:10.779Z,31.83
2018-10-19T00:38:39.815Z,29.93
2018-10-19T00:41:08.935Z,31.67
2018-10-19T00:43:37.881Z,30.03
2018-10-19T00:46:06.899Z,31.37
2018-10-19T00:48:35.947Z,30.87
2018-10-19T00:51:05.055Z,30.03
2018-10-19T00:53:34.391Z,29.13
2018-10-19T00:56:03.412Z,28.73
2018-10-19T00:58:32.436Z,27.93
2018-10-19T01:01:01.599Z,29.13
2018-10-19T01:03:30.621Z,27.53
2018-10-19T01:05:59.679Z,26.03
2018-10-19T01:08:28.697Z,27.03
2018-10-19T01:10:57.792Z,27.03
2018-10-19T01:13:26.760Z,26.00
2018-10-19T01:15:55.803Z,26.63
2018-10-19T01:18:24.858Z,27.50
2018-10-19T01:20:53.983Z,28.73
2018-10-19T01:23:22.988Z,27.57
2018-10-19T01:25:52.001Z,27.80
2018-10-19T01:28:21.054Z,26.10
2018-10-19T01:30:50.047Z,26.13
2018-10-19T01:33:19.234Z,27.80
2018-10-19T01:35:48.235Z,29.03
2018-10-19T01:38:17.275Z,29.40
2018-10-19T01:40:46.318Z,29.13
2018-10-19T01:43:15.370Z,30.17
2018-10-19T01:45:58.763Z,30.63
2018-10-19T01:48:28.350Z,31.43
2018-10-19T01:50:58.076Z,32.27
2018-10-19T01:53:27.206Z,30.97
2018-10-19T01:55:56.267Z,32.10
2018-10-19T01:58:26.287Z,33.30
2018-10-19T02:00:55.389Z,33.93
2018-10-19T02:03:24.419Z,32.67
2018-10-19T02:05:53.444Z,30.53
2018-10-19T02:08:22.537Z,33.27
2018-10-19T02:10:51.543Z,32.90
2018-10-19T02:13:20.932Z,32.77
2018-10-19T02:15:49.924Z,32.13
2018-10-19T02:18:18.975Z,33.10
2018-10-19T02:20:48.076Z,32.43
2018-10-19T02:23:17.196Z,33.77
2018-10-19T02:25:46.130Z,33.43
2018-10-19T02:28:15.177Z,32.27
2018-10-19T02:30:44.365Z,32.07
2018-10-19T02:33:13.467Z,30.93
2018-10-19T02:35:42.371Z,31.17
2018-10-19T02:38:11.397Z,30.33
2018-10-19T02:40:40.426Z,32.23
2018-10-19T02:43:09.458Z,31.67
2018-10-19T02:45:41.864Z,32.77
2018-10-19T02:48:11.711Z,30.63
2018-10-19T02:50:40.786Z,30.87
2018-10-19T02:53:09.804Z,32.57
2018-10-19T02:55:38.836Z,31.67
2018-10-19T02:58:07.847Z,30.43
2018-10-19T03:00:36.884Z,31.63
2018-10-19T03:03:05.950Z,31.30
2018-10-19T03:05:34.919Z,30.13
2018-10-19T03:08:03.950Z,31.30
2018-10-19T03:10:32.960Z,31.57
2018-10-19T03:13:02.019Z,33.30
2018-10-19T03:15:31.043Z,30.77
2018-10-19T03:18:00.061Z,30.87
2018-10-19T03:20:29.075Z,32.03
2018-10-19T03:22:58.096Z,31.27
2018-10-19T03:25:27.148Z,33.13
2018-10-19T03:27:56.195Z,30.80
2018-10-19T03:30:25.411Z,30.67
2018-10-19T03:32:54.433Z,31.47
2018-10-19T03:35:23.522Z,30.57
2018-10-19T03:37:52.536Z,30.50
2018-10-19T03:40:21.643Z,31.97
2018-10-19T03:42:50.713Z,30.27
2018-10-19T03:45:19.720Z,28.70
2018-10-19T03:47:48.752Z,29.70
2018-10-19T03:50:17.772Z,30.53
2018-10-19T03:52:46.799Z,29.67
2018-10-19T03:55:15.810Z,30.17
2018-10-19T03:57:44.831Z,29.90
2018-10-19T04:00:13.866Z,29.77
2018-10-19T04:02:42.925Z,28.47
2018-10-19T04:05:11.973Z,30.47
2018-10-19T04:07:40.956Z,29.20
2018-10-19T04:10:09.994Z,28.20
2018-10-19T04:12:39.116Z,29.30
2018-10-19T04:15:08.845Z,28.37
2018-10-19T04:17:37.808Z,28.27
2018-10-19T04:20:06.844Z,28.30
2018-10-19T04:22:35.892Z,27.73
2018-10-19T04:25:05.208Z,27.63
2018-10-19T04:27:34.259Z,27.90
2018-10-19T04:30:05.803Z,28.60
2018-10-19T04:32:34.848Z,27.57
2018-10-19T04:35:04.026Z,28.47
2018-10-19T04:37:32.983Z,27.13
2018-10-19T04:40:01.996Z,26.97
2018-10-19T04:42:31.036Z,27.57
2018-10-19T04:45:00.063Z,27.20
2018-10-19T04:47:29.181Z,28.37
2018-10-19T04:49:58.175Z,27.63
2018-10-19T04:52:27.245Z,31.43
2018-10-19T04:54:56.263Z,27.00
2018-10-19T04:57:25.463Z,27.10
2018-10-19T04:59:54.492Z,26.77
2018-10-19T05:02:23.535Z,26.93
2018-10-19T05:04:52.616Z,27.43
2018-10-19T05:07:21.553Z,27.63
2018-10-19T05:09:50.587Z,27.50
2018-10-19T05:12:19.678Z,25.87
2018-10-19T05:14:48.640Z,27.10
2018-10-19T05:17:17.670Z,26.03
2018-10-19T05:19:46.713Z,26.40
2018-10-19T05:22:15.737Z,27.63
2018-10-19T05:24:44.800Z,25.97
2018-10-19T05:29:48.917Z,26.07
2018-10-19T05:32:18.004Z,26.63
2018-10-19T05:34:47.015Z,27.27
2018-10-19T05:37:16.108Z,25.87
2018-10-19T05:39:45.169Z,26.33
2018-10-19T05:42:14.168Z,26.03
2018-10-19T05:44:43.208Z,26.67
2018-10-19T05:47:12.239Z,25.73
2018-10-19T05:49:41.255Z,25.13
2018-10-19T05:52:10.351Z,26.17
2018-10-19T05:54:39.236Z,25.83
2018-10-19T05:57:08.260Z,26.60
2018-10-19T05:59:37.272Z,25.93
2018-10-19T06:02:06.856Z,25.17
2018-10-19T06:04:35.780Z,26.20
2018-10-19T06:07:05.166Z,26.57
2018-10-19T06:09:34.420Z,25.47
2018-10-19T06:12:03.479Z,25.37
2018-10-19T06:14:32.584Z,25.27
2018-10-19T06:17:01.663Z,25.07
2018-10-19T06:19:30.625Z,25.20
2018-10-19T06:21:59.656Z,25.97
2018-10-19T06:24:28.679Z,26.80
2018-10-19T06:26:57.706Z,25.07
2018-10-19T06:29:26.716Z,25.73
2018-10-19T06:31:55.782Z,25.50
2018-10-19T06:34:24.867Z,24.00
2018-10-19T06:36:53.874Z,23.23
2018-10-19T06:39:22.915Z,24.60
2018-10-19T06:41:51.927Z,23.73
2018-10-19T06:44:21.014Z,22.00
2018-10-19T06:46:50.307Z,24.13
2018-10-19T06:49:19.267Z,24.20
2018-10-19T06:51:48.307Z,23.53
2018-10-19T06:54:17.470Z,22.70
2018-10-19T06:56:46.508Z,23.60
2018-10-19T06:59:16.059Z,23.47
2018-10-19T07:01:45.150Z,21.73
2018-10-19T07:04:14.156Z,23.70
2018-10-19T07:06:43.195Z,22.50
2018-10-19T07:09:12.239Z,22.60
2018-10-19T07:11:41.263Z,23.93
2018-10-19T07:14:10.442Z,23.93
2018-10-19T07:16:39.367Z,23.03
2018-10-19T07:19:08.475Z,24.20
2018-10-19T07:21:37.445Z,23.03
2018-10-19T07:24:06.562Z,23.03
2018-10-19T07:26:35.637Z,23.40
2018-10-19T07:29:04.824Z,22.97
2018-10-19T07:31:33.840Z,22.67
2018-10-19T07:34:02.910Z,23.33
2018-10-19T07:36:32.060Z,22.50
2018-10-19T07:39:01.023Z,24.13
2018-10-19T07:41:30.360Z,23.13
2018-10-19T07:43:59.510Z,22.93
2018-10-19T07:46:28.460Z,23.03
2018-10-19T07:48:57.496Z,23.07
2018-10-19T07:51:26.528Z,23.33
2018-10-19T07:53:55.641Z,22.93
2018-10-19T07:56:24.660Z,24.00
2018-10-19T07:58:53.750Z,24.07
2018-10-19T08:01:22.750Z,22.53
2018-10-19T08:03:52.071Z,23.50
2018-10-19T08:06:21.120Z,23.30
2018-10-19T08:08:50.143Z,24.63
2018-10-19T08:11:19.207Z,24.60
2018-10-19T08:13:48.263Z,23.73
2018-10-19T08:16:17.284Z,24.70
2018-10-19T08:18:46.364Z,24.43
2018-10-19T08:21:15.479Z,26.27
2018-10-19T08:23:44.682Z,24.80
2018-10-19T08:26:13.797Z,25.13
2018-10-19T08:28:42.727Z,25.67
2018-10-19T08:31:11.835Z,25.40
2018-10-19T08:33:40.936Z,27.17
2018-10-19T08:36:09.976Z,26.47
2018-10-19T08:38:39.023Z,25.43
2018-10-19T08:41:08.143Z,26.47
2018-10-19T08:43:37.124Z,26.17
2018-10-19T08:46:11.712Z,26.03
2018-10-19T08:48:40.807Z,26.03
2018-10-19T08:51:09.901Z,26.50
2018-10-19T08:53:38.995Z,28.17
2018-10-19T08:56:08.044Z,25.60
2018-10-19T08:58:37.136Z,26.70
2018-10-19T09:01:06.347Z,26.43
2018-10-19T09:03:35.451Z,25.97
2018-10-19T09:06:04.729Z,26.40
2018-10-19T09:08:33.795Z,26.77
2018-10-19T09:11:02.869Z,26.57
2018-10-19T09:13:31.987Z,26.20
2018-10-19T09:16:00.990Z,27.47
2018-10-19T09:18:30.072Z,26.50
2018-10-19T09:20:59.089Z,27.00
2018-10-19T09:23:28.059Z,27.50
2018-10-19T09:25:57.107Z,28.17
2018-10-19T09:28:26.133Z,29.67
2018-10-19T09:30:55.404Z,27.37
2018-10-19T09:33:24.418Z,27.67
2018-10-19T09:35:53.461Z,26.03
2018-10-19T09:38:22.503Z,26.03
2018-10-19T09:40:51.573Z,26.27
2018-10-19T09:43:20.603Z,26.53
2018-10-19T09:45:49.630Z,27.33
2018-10-19T09:48:18.887Z,26.17
2018-10-19T09:50:47.960Z,26.17
2018-10-19T09:53:17.031Z,26.40
2018-10-19T09:55:46.069Z,26.13
2018-10-19T09:58:15.088Z,27.90
2018-10-19T10:00:49.484Z,26.60
2018-10-19T10:03:18.517Z,27.03
2018-10-19T10:05:47.571Z,27.57
2018-10-19T10:08:16.592Z,27.30
2018-10-19T10:10:45.815Z,26.67
2018-10-19T10:13:15.025Z,28.63
2018-10-19T10:15:44.024Z,26.53
2018-10-19T10:18:13.004Z,27.83
2018-10-19T10:20:42.035Z,27.97
2018-10-19T10:23:11.084Z,26.50
2018-10-19T10:25:40.127Z,26.07
2018-10-19T10:28:09.200Z,26.83
2018-10-19T10:30:38.284Z,27.03
2018-10-19T10:33:07.366Z,27.63
2018-10-19T10:35:36.400Z,27.80
2018-10-19T10:38:05.851Z,25.00
2018-10-19T10:40:34.902Z,25.30
2018-10-19T10:43:04.004Z,26.13
2018-10-19T10:45:33.024Z,25.57
2018-10-19T10:48:02.059Z,26.17
2018-10-19T10:50:31.093Z,26.97
2018-10-19T10:53:00.118Z,25.80
2018-10-19T10:55:29.144Z,27.23
2018-10-19T10:57:58.229Z,26.90
2018-10-19T11:00:27.330Z,25.73
2018-10-19T11:02:56.341Z,27.33
2018-10-19T11:05:25.428Z,28.37
2018-10-19T11:07:54.468Z,27.07
2018-10-19T11:10:23.504Z,26.50
2018-10-19T11:12:52.574Z,27.05
2018-10-19T11:15:21.601Z,26.67
2018-10-19T11:17:50.632Z,27.53
2018-10-19T11:20:19.643Z,26.63
2018-10-19T11:22:48.694Z,25.90
2018-10-19T11:27:46.843Z,26.15
2018-10-19T11:30:15.891Z,26.55
2018-10-19T11:32:44.935Z,26.12
2018-10-19T11:35:14.109Z,27.37
2018-10-19T11:37:43.290Z,27.60
2018-10-19T11:40:34.999Z,26.50
2018-10-19T11:43:04.122Z,26.00
2018-10-19T11:45:33.996Z,26.23
2018-10-19T11:48:03.131Z,27.75
2018-10-19T11:50:32.191Z,26.52
2018-10-19T11:53:01.315Z,25.80
2018-10-19T11:55:30.361Z,26.15
2018-10-19T11:57:59.373Z,27.93
2018-10-19T12:00:28.450Z,26.95
2018-10-19T12:02:57.508Z,26.52
2018-10-19T12:05:26.567Z,28.92
2018-10-19T12:07:55.596Z,27.13
2018-10-19T12:10:24.707Z,25.95
2018-10-19T12:12:53.771Z,26.75
2018-10-19T12:15:23.025Z,27.15
2018-10-19T12:17:52.027Z,24.87
2018-10-19T12:20:21.087Z,27.00
2018-10-19T12:22:50.114Z,26.48
2018-10-19T12:25:19.143Z,26.97
2018-10-19T12:27:48.259Z,25.70
2018-10-19T12:30:17.283Z,26.05
2018-10-19T12:32:46.332Z,25.40
2018-10-19T12:35:15.476Z,26.40
2018-10-19T12:37:44.548Z,27.27
2018-10-19T12:40:13.589Z,24.50
2018-10-19T12:42:42.707Z,27.00
2018-10-19T12:46:27.312Z,27.02
2018-10-19T12:48:56.731Z,25.32
2018-10-19T12:51:25.715Z,26.42
2018-10-19T12:53:54.846Z,24.67
2018-10-19T12:56:24.107Z,24.32
2018-10-19T12:58:53.883Z,23.95
2018-10-19T13:01:23.944Z,24.25
2018-10-19T13:03:53.309Z,23.42
2018-10-19T13:06:22.407Z,25.02
2018-10-19T13:08:51.837Z,25.72
2018-10-19T13:11:20.846Z,27.35
2018-10-19T13:13:49.900Z,27.27
2018-10-19T13:16:18.943Z,25.40
2018-10-19T13:18:47.981Z,28.50
2018-10-19T13:21:17.132Z,26.27
2018-10-19T13:23:46.060Z,24.75
2018-10-19T13:26:15.088Z,26.27
2018-10-19T13:28:44.179Z,25.12
2018-10-19T13:31:13.195Z,24.52
2018-10-19T13:33:42.255Z,24.87
2018-10-19T13:36:11.434Z,24.72
2018-10-19T13:38:40.395Z,23.25
2018-10-19T13:41:09.441Z,25.15
2018-10-19T13:43:39.032Z,26.20
2018-10-19T13:46:08.071Z,23.20
2018-10-19T13:48:37.129Z,22.02
2018-10-19T13:51:06.212Z,21.85
2018-10-19T13:53:35.231Z,23.98
2018-10-19T13:56:04.248Z,23.22
2018-10-19T13:58:33.317Z,24.18
2018-10-19T14:01:02.728Z,26.15
2018-10-19T14:03:31.771Z,24.90
2018-10-19T14:06:00.796Z,26.45
2018-10-19T14:08:29.811Z,24.87
2018-10-19T14:10:58.942Z,26.87
2018-10-19T14:13:27.915Z,25.45
2018-10-19T14:15:56.950Z,24.63
2018-10-19T14:18:25.978Z,24.50
2018-10-19T14:20:55.009Z,27.90
2018-10-19T14:23:24.021Z,24.72
2018-10-19T14:25:53.038Z,26.02
2018-10-19T14:28:22.087Z,24.47
2018-10-19T14:30:51.152Z,25.82
2018-10-19T14:33:20.336Z,27.30
2018-10-19T14:35:49.258Z,27.40
2018-10-19T14:38:18.295Z,26.57
2018-10-19T14:40:47.327Z,27.80
2018-10-19T14:43:16.387Z,26.02
2018-10-19T14:45:45.395Z,27.85
2018-10-19T14:48:14.403Z,27.22
2018-10-19T14:50:43.438Z,26.23
2018-10-19T14:53:12.487Z,25.57
2018-10-19T14:55:41.750Z,25.65
2018-10-19T14:58:10.811Z,25.75
2018-10-19T15:00:39.855Z,27.87
2018-10-19T15:03:08.923Z,25.77
2018-10-19T15:05:37.926Z,28.47
2018-10-19T15:08:06.955Z,29.90
2018-10-19T15:10:36.216Z,26.27
2018-10-19T15:13:05.075Z,26.02
2018-10-19T15:15:34.116Z,26.07
2018-10-19T15:18:03.183Z,25.75
2018-10-19T15:20:32.222Z,24.75
2018-10-19T15:23:01.236Z,25.88
2018-10-19T15:25:30.280Z,26.27
2018-10-19T15:27:59.350Z,25.43
2018-10-19T15:30:28.380Z,26.25
2018-10-19T15:32:57.573Z,24.72
2018-10-19T15:35:26.575Z,24.32
2018-10-19T15:37:55.587Z,26.70
2018-10-19T15:40:24.644Z,26.87
2018-10-19T15:42:53.674Z,24.13
2018-10-19T15:45:22.708Z,25.50
2018-10-19T15:47:51.739Z,25.63
2018-10-19T15:50:20.808Z,23.17
2018-10-19T15:52:49.842Z,27.00
2018-10-19T15:55:18.872Z,26.20
2018-10-19T15:57:47.923Z,27.03
2018-10-19T16:00:16.987Z,24.80
2018-10-19T16:02:45.980Z,24.60
2018-10-19T16:05:15.042Z,25.00
2018-10-19T16:07:44.076Z,24.87
2018-10-19T16:10:13.135Z,25.27
2018-10-19T16:12:42.107Z,25.30
2018-10-19T16:15:11.638Z,24.80
2018-10-19T16:17:40.910Z,24.50
2018-10-19T16:20:10.575Z,26.33
2018-10-19T16:22:39.611Z,26.43
2018-10-19T16:25:09.107Z,24.90
2018-10-19T16:27:39.132Z,23.83
2018-10-19T16:30:09.141Z,25.23
2018-10-19T16:32:38.979Z,24.27
2018-10-19T16:35:08.376Z,24.47
2018-10-19T16:37:37.933Z,26.37
2018-10-19T16:40:07.067Z,26.23
2018-10-19T16:42:36.102Z,26.00
2018-10-19T16:45:06.231Z,26.17
2018-10-19T16:47:35.276Z,25.60
2018-10-19T16:50:04.447Z,26.13
2018-10-19T16:52:33.572Z,25.93
2018-10-19T16:55:02.580Z,25.50
2018-10-19T16:57:32.026Z,26.23
2018-10-19T17:00:01.116Z,26.20
2018-10-19T17:02:30.185Z,28.30
2018-10-19T17:04:59.252Z,26.53
2018-10-19T17:07:28.371Z,28.57
2018-10-19T17:09:57.394Z,28.30
2018-10-19T17:12:26.408Z,28.53
2018-10-19T17:14:55.487Z,30.33
2018-10-19T17:17:24.472Z,29.23
2018-10-19T17:19:53.512Z,29.43
2018-10-19T17:22:22.531Z,30.60
2018-10-19T17:24:51.654Z,29.57
2018-10-19T17:27:20.735Z,30.67
2018-10-19T17:29:49.756Z,30.80
2018-10-19T17:32:18.783Z,31.33
2018-10-19T17:34:47.811Z,30.00
2018-10-19T17:37:16.959Z,32.43
2018-10-19T17:39:46.042Z,33.13
2018-10-19T17:42:15.116Z,31.60
2018-10-19T17:44:44.086Z,31.47
2018-10-19T17:47:13.171Z,32.93
2018-10-19T17:49:42.146Z,33.27
2018-10-19T17:52:11.160Z,32.03
2018-10-19T17:54:40.205Z,35.07
2018-10-19T17:57:09.268Z,35.20
2018-10-19T17:59:38.290Z,35.77
2018-10-19T18:02:07.303Z,34.70
2018-10-19T18:04:36.416Z,34.33
2018-10-19T18:07:05.791Z,33.03
2018-10-19T18:09:34.939Z,32.60
2018-10-19T18:12:03.972Z,32.43
2018-10-19T18:14:33.007Z,31.97
2018-10-19T18:17:02.155Z,30.97
2018-10-19T18:19:31.176Z,31.67
2018-10-19T18:22:00.288Z,32.63
2018-10-19T18:24:29.273Z,32.37
2018-10-19T18:26:58.320Z,49.03
2018-10-19T18:29:27.363Z,63.83
2018-10-19T18:31:56.447Z,35.00
2018-10-19T18:34:25.414Z,34.77
2018-10-19T18:36:54.451Z,34.53
2018-10-19T18:39:23.482Z,34.93
2018-10-19T18:41:52.543Z,35.27
2018-10-19T18:44:21.716Z,35.13
2018-10-19T18:46:50.805Z,36.30
2018-10-19T18:49:19.931Z,36.97
2018-10-19T18:51:49.177Z,35.47
2018-10-19T18:54:18.336Z,34.60
2018-10-19T18:56:47.460Z,36.43
2018-10-19T18:59:16.698Z,36.23
2018-10-19T19:01:45.696Z,34.23
2018-10-19T19:04:14.782Z,34.40
2018-10-19T19:06:43.799Z,35.00
2018-10-19T19:09:14.319Z,35.03
2018-10-19T19:11:44.151Z,33.37
2018-10-19T19:14:14.226Z,32.43
2018-10-19T19:16:43.381Z,31.00
2018-10-19T19:19:12.444Z,31.80
2018-10-19T19:21:41.475Z,32.23
2018-10-19T19:24:15.767Z,32.10
2018-10-19T19:26:44.820Z,34.07
2018-10-19T19:29:13.912Z,32.80
2018-10-19T19:31:42.962Z,32.27
2018-10-19T19:41:34.775Z,31.87
2018-10-19T19:44:03.888Z,30.67
2018-10-19T19:46:32.875Z,32.67
2018-10-19T19:49:07.531Z,32.50
2018-10-19T19:51:36.651Z,30.90
2018-10-19T19:54:06.043Z,34.90
2018-10-19T19:56:35.440Z,35.13
2018-10-19T19:59:04.609Z,34.87
2018-10-19T20:01:33.627Z,35.30
2018-10-19T20:04:02.679Z,34.57
2018-10-19T20:06:31.709Z,34.33
2018-10-19T20:09:00.763Z,34.57
2018-10-19T20:11:29.807Z,34.07
2018-10-19T20:13:58.914Z,34.27
2018-10-19T20:16:27.893Z,32.77
2018-10-19T20:18:56.915Z,34.57
2018-10-19T20:21:25.963Z,34.83
2018-10-19T20:23:54.975Z,34.67
2018-10-19T20:26:24.011Z,36.43
2018-10-19T20:28:53.056Z,39.40
2018-10-19T20:31:22.111Z,35.27
2018-10-19T20:33:51.145Z,36.47
2018-10-19T20:36:20.188Z,37.93
2018-10-19T20:38:49.371Z,36.97
2018-10-19T20:41:18.439Z,36.83
2018-10-19T20:43:47.439Z,36.73
2018-10-19T20:46:16.471Z,37.60
2018-10-19T20:48:45.507Z,38.20
2018-10-19T20:51:14.623Z,38.27
2018-10-19T20:53:44.008Z,37.63
2018-10-19T20:56:13.167Z,35.77
2018-10-19T20:58:42.171Z,35.43
2018-10-19T21:01:11.246Z,35.27
2018-10-19T21:03:40.283Z,34.20
2018-10-19T21:06:09.349Z,35.07
2018-10-19T21:08:38.397Z,35.23
2018-10-19T21:11:08.062Z,34.23
2018-10-19T21:13:37.067Z,36.27
2018-10-19T21:16:06.331Z,36.00
2018-10-19T21:18:35.356Z,36.27
2018-10-19T21:21:04.681Z,33.07
2018-10-19T21:23:33.732Z,32.43
2018-10-19T21:26:02.782Z,32.73
2018-10-19T21:28:31.803Z,31.87
2018-10-19T21:31:00.831Z,34.60
2018-10-19T21:33:29.876Z,36.87
2018-10-19T21:35:58.904Z,37.00
2018-10-19T21:38:27.935Z,36.70
2018-10-19T21:40:56.992Z,34.73
2018-10-19T21:43:26.020Z,36.37
2018-10-19T21:45:55.062Z,36.53
2018-10-19T21:48:24.083Z,36.97
2018-10-19T21:50:53.184Z,35.83
2018-10-19T21:53:22.217Z,36.63
2018-10-19T21:55:51.323Z,34.63
2018-10-19T21:58:20.367Z,35.50
2018-10-19T22:00:49.438Z,34.47
2018-10-19T22:03:18.456Z,36.77
2018-10-19T22:05:47.492Z,36.43
2018-10-19T22:08:16.520Z,36.60
2018-10-19T22:10:45.552Z,36.97
2018-10-19T22:13:14.663Z,36.70
2018-10-19T22:15:43.630Z,36.20
2018-10-19T22:18:12.692Z,35.53
2018-10-19T22:20:41.723Z,35.83
2018-10-19T22:23:11.091Z,36.80
2018-10-19T22:25:40.071Z,35.40
2018-10-19T22:28:09.083Z,36.80
2018-10-19T22:30:38.127Z,37.83
2018-10-19T22:33:07.152Z,36.20
2018-10-19T22:35:36.195Z,35.27
2018-10-19T22:38:05.219Z,33.37
2018-10-19T22:40:34.440Z,34.47
2018-10-19T22:43:03.514Z,33.50
2018-10-19T22:45:32.499Z,33.20
2018-10-19T22:48:01.541Z,31.60
2018-10-19T22:50:30.824Z,31.10
2018-10-19T22:53:02.841Z,29.17
2018-10-19T22:55:31.871Z,28.53
2018-10-19T22:58:01.319Z,31.03
2018-10-19T23:00:30.371Z,32.27
2018-10-19T23:02:59.390Z,28.93
2018-10-19T23:05:28.432Z,32.03
2018-10-19T23:07:57.485Z,30.90
2018-10-19T23:10:26.638Z,29.63
2018-10-19T23:12:55.754Z,28.97
2018-10-19T23:15:24.787Z,28.37
2018-10-19T23:17:53.873Z,27.30
2018-10-19T23:20:22.923Z,26.73
2018-10-19T23:22:51.961Z,26.80
2018-10-19T23:25:21.004Z,26.77
2018-10-19T23:27:50.041Z,26.27
2018-10-19T23:30:19.102Z,27.80
2018-10-19T23:32:48.164Z,27.90
2018-10-19T23:35:17.335Z,27.83
2018-10-19T23:37:46.299Z,26.97
2018-10-19T23:40:15.255Z,29.97
2018-10-19T23:42:44.275Z,29.27
2018-10-19T23:45:13.339Z,26.33
2018-10-19T23:47:42.374Z,30.07
2018-10-19T23:50:11.531Z,35.07
2018-10-19T23:52:40.556Z,36.17
2018-10-19T23:55:09.646Z,35.67
2018-10-19T23:57:38.615Z,38.37
